Argos, IN (46501)

2:09 AM EDT on May 06, 2015 (GMT -0400)
INDOT | | Change Station
CLOSE
Current Station
Personal Weather Station
Location: Argos, IN
Elevation: 828 ft
Nearby Weather Stations

Elev 828 ft 41.27 °N, 86.27 °W | Updated 39 minutes ago

Overcast
Overcast
58 °F
Feels Like 58 °F
N
6
Wind Variable Wind from ESE
Gusts 11.0 mph

Today
High -- | Low -- °F
--% Chance of Precip.
Yesterday
High -- | Low -- °F
Precip. -- in
6:36 AM 8:47 PM
Waning Gibbous, 95% visible
Pressure 30.22 in
Visibility 2.5 miles
Clouds Overcast 700 ft
Dew Point 57 °F
Humidity 95%
Rainfall in
Snow Depth Not available.
UV 0 out of 12
Pollen .50 out of 12
Air Quality Not available.
Flu Activity Local Activity
METAR KRCR 060555Z AUTO 10007KT 2 1/2SM BR OVC007 15/15 A3022 RMK AO2

More Conditions Fewer Conditions

Pressure 30.22 in
Visibility 2.5 miles
Clouds Overcast 700 ft
Dew Point 57 °F
Humidity 95%
Rainfall in
Snow Depth Not available.
UV 0 out of 12
Pollen .50 out of 12
Air Quality Not available.
Flu Activity Local Activity
METAR KRCR 060555Z AUTO 10007KT 2 1/2SM BR OVC007 15/15 A3022 RMK AO2

More Conditions Fewer Conditions

10-Day Weather Forecast

Almanac

Astronomy

May. 06, 2015 Rise Set
Actual Time
Civil Twilight
Nautical Twilight
Astronomical Twilight
Moon
Length of Visible Light
Length of Day
Tomorrow will be .
, % of the Moon is Illuminated

Today's Extremes

State Highs State Lows

Community

WunderPhotos

Upload Photos

1,818,848 photos uploaded!

WunderBlogs® & News

Nearby

Air Quality

  Air Quality AQ Index Pollutant
Not available.

Snow Depth

Station Depth Elevation

Earthquake Activity

City Distance Mag. Time & Date
Minimum magnitude displayed is 2.5.

Coastal Water Temperatures

Place Temperature

Stations

Nearby Weather Stations

Station Location Temp. Windchill Dew Point Humidity Wind Precip. Elev Updated Type